GA2 weather

Alexander Memorial Airport
Williamson, Georgia, United States

Public forecast

Using degrees Fahrenheit for public forecast. Weather courtesy of forecast.io.

METAR (pilot weather report)

Closest report is Griffin Spalding County Airport, 5.8 nm (10.7 km) ENE. Retrieved 2019/08/24 10:35 UTC (0 seconds ago):

K6A2 241035Z AUTO 00000KT 7SM CLR 21/21 A3003 RMK AO2

TAF (pilot weather forecast)

Closest forecast is Hartsfield Jackson Atlanta International Airport, 27.3 nm (50.6 km) N. Retrieved 2019/08/24 06:42 UTC (4 hours ago):

TAF KATL 240540Z 2406/2512 13003KT P6SM FEW050 SCT150 BKN250 FM241100 01003KT P6SM SCT006 SCT150 FM241500 02004KT P6SM SCT030 SCT250 FM241800 09006KT P6SM VCSH BKN040 PROB30 2418/2424 5SM TSRA BKN035CB FM250100 08007KT P6SM VCSH FEW014 BKN025 FM250400 08009KT P6SM OVC012 FM250700 08010KT P6SM OVC007